createdAt,value
2022-10-10T00:02:36.441Z,976.78
2022-10-10T00:08:08.178Z,977.03
2022-10-10T00:13:39.998Z,977.1
2022-10-10T00:19:11.613Z,976.94
2022-10-10T00:24:43.353Z,976.96
2022-10-10T00:30:15.161Z,977.01
2022-10-10T00:35:46.858Z,977.0
2022-10-10T00:41:18.493Z,977.0
2022-10-10T00:46:50.446Z,977.27
2022-10-10T00:52:26.426Z,977.4
2022-10-10T00:57:58.153Z,977.77
2022-10-10T01:03:29.797Z,977.77
2022-10-10T01:09:01.445Z,977.73
2022-10-10T01:14:33.211Z,977.88
2022-10-10T01:20:05.174Z,977.75
2022-10-10T01:25:36.742Z,977.76
2022-10-10T01:31:08.515Z,977.78
2022-10-10T01:36:40.122Z,977.69
2022-10-10T01:42:11.862Z,977.78
2022-10-10T01:47:43.658Z,978.0
2022-10-10T01:53:19.770Z,977.74
2022-10-10T01:58:51.474Z,977.85
2022-10-10T02:04:23.378Z,977.76
2022-10-10T02:09:54.884Z,977.83
2022-10-10T02:15:26.573Z,977.37
2022-10-10T02:20:58.338Z,977.39
2022-10-10T02:26:29.998Z,977.51
2022-10-10T02:32:01.826Z,977.67
2022-10-10T02:37:33.486Z,977.79
2022-10-10T02:43:05.229Z,977.47
2022-10-10T02:48:36.838Z,977.61
2022-10-10T02:54:13.092Z,977.57
2022-10-10T02:59:44.822Z,977.67
2022-10-10T03:05:16.537Z,977.36
2022-10-10T03:10:48.279Z,977.54
2022-10-10T03:16:20.025Z,977.53
2022-10-10T03:21:51.729Z,977.61
2022-10-10T03:27:23.485Z,977.56
2022-10-10T03:32:55.102Z,977.47
2022-10-10T03:38:26.941Z,977.5
2022-10-10T03:43:58.565Z,977.32
2022-10-10T03:49:30.265Z,977.5
2022-10-10T03:55:06.401Z,977.52
2022-10-10T04:00:38.197Z,977.52
2022-10-10T04:06:09.929Z,977.54
2022-10-10T04:11:41.662Z,977.59
2022-10-10T04:17:13.328Z,977.69
2022-10-10T04:22:45.101Z,977.09
2022-10-10T04:28:16.914Z,977.52
2022-10-10T04:33:48.629Z,977.51
2022-10-10T04:39:20.317Z,977.42
2022-10-10T04:44:51.902Z,977.43
2022-10-10T04:50:23.706Z,977.47
2022-10-10T04:55:59.818Z,977.45
2022-10-10T05:01:31.699Z,977.34
2022-10-10T05:07:03.274Z,977.52
2022-10-10T05:12:35.182Z,977.48
2022-10-10T05:18:07.370Z,977.57
2022-10-10T05:23:38.537Z,977.65
2022-10-10T05:29:10.180Z,977.78
2022-10-10T05:34:42.019Z,977.75
2022-10-10T05:40:13.659Z,978.02
2022-10-10T05:45:45.402Z,978.19
2022-10-10T05:51:17.217Z,978.16
2022-10-10T05:56:53.220Z,978.3
2022-10-10T06:02:24.941Z,978.41
2022-10-10T06:08:12.565Z,978.6
2022-10-10T06:13:28.389Z,978.64
2022-10-10T06:19:00.138Z,978.86
2022-10-10T06:24:31.805Z,979.11
2022-10-10T06:30:03.791Z,978.47
2022-10-10T06:35:35.245Z,979.47
2022-10-10T06:41:06.971Z,979.46
2022-10-10T06:46:38.694Z,979.68
2022-10-10T06:52:10.513Z,979.83
2022-10-10T06:57:46.596Z,979.95
2022-10-10T07:03:18.185Z,980.35
2022-10-10T07:08:50.017Z,980.8
2022-10-10T07:14:21.675Z,980.57
2022-10-10T07:19:53.477Z,980.77
2022-10-10T07:25:25.137Z,980.8
2022-10-10T07:30:56.821Z,980.3
2022-10-10T07:36:28.534Z,980.79
2022-10-10T07:42:00.252Z,980.74
2022-10-10T07:47:32.048Z,981.46
2022-10-10T07:53:03.978Z,981.45
2022-10-10T07:58:39.861Z,981.73
2022-10-10T08:04:11.574Z,981.5
2022-10-10T08:09:43.261Z,981.73
2022-10-10T08:15:15.002Z,981.34
2022-10-10T08:20:46.797Z,981.75
2022-10-10T08:26:18.591Z,981.87
2022-10-10T08:31:50.137Z,982.12
2022-10-10T08:37:35.198Z,981.57
2022-10-10T08:42:54.364Z,982.17
2022-10-10T08:48:25.312Z,982.16
2022-10-10T08:53:57.182Z,982.14
2022-10-10T08:59:33.154Z,982.81
2022-10-10T09:05:04.865Z,982.69
2022-10-10T09:10:36.561Z,982.59
2022-10-10T09:16:08.365Z,982.43
2022-10-10T09:21:40.144Z,982.64
2022-10-10T09:27:11.786Z,982.38
2022-10-10T09:32:43.509Z,983.16
2022-10-10T09:38:15.246Z,982.74
2022-10-10T09:43:46.961Z,982.97
2022-10-10T09:49:18.715Z,983.39
2022-10-10T09:54:50.558Z,983.11
2022-10-10T10:00:26.447Z,983.45
2022-10-10T10:05:58.453Z,983.59
2022-10-10T10:11:30.153Z,983.32
2022-10-10T10:17:01.782Z,983.21
2022-10-10T10:22:33.505Z,983.53
2022-10-10T10:28:05.390Z,983.09
2022-10-10T10:33:37.025Z,983.21
2022-10-10T10:39:08.705Z,983.35
2022-10-10T10:44:40.524Z,983.06
2022-10-10T10:50:12.143Z,983.36
2022-10-10T10:55:43.942Z,983.69
2022-10-10T11:01:57.928Z,983.54
2022-10-10T11:07:21.031Z,983.07
2022-10-10T11:12:23.446Z,983.93
2022-10-10T11:17:55.112Z,984.07
2022-10-10T11:23:26.904Z,983.24
2022-10-10T11:28:58.941Z,983.58
2022-10-10T11:34:30.279Z,983.66
2022-10-10T11:40:01.963Z,983.6
2022-10-10T11:45:33.753Z,983.49
2022-10-10T11:51:05.525Z,983.4
2022-10-10T11:56:37.261Z,982.71
2022-10-10T12:02:13.388Z,983.21
2022-10-10T12:07:45.068Z,983.26
2022-10-10T12:13:16.869Z,982.24
2022-10-10T12:18:48.468Z,982.56
2022-10-10T12:24:20.538Z,982.81
2022-10-10T12:29:52.290Z,981.98
2022-10-10T12:35:23.659Z,981.11
2022-10-10T12:40:55.415Z,980.44
2022-10-10T12:46:27.045Z,981.14
2022-10-10T12:51:59.029Z,981.66
2022-10-10T12:57:30.491Z,981.1
2022-10-10T13:03:08.676Z,981.78
2022-10-10T13:08:40.580Z,981.61
2022-10-10T13:14:12.154Z,982.04
2022-10-10T13:19:43.767Z,981.9
2022-10-10T13:25:15.575Z,981.71
2022-10-10T13:30:47.381Z,981.61
2022-10-10T13:36:19.018Z,981.81
2022-10-10T13:41:50.842Z,981.14
2022-10-10T13:47:22.439Z,981.0
2022-10-10T13:52:54.201Z,981.03
2022-10-10T13:58:25.935Z,980.83
2022-10-10T14:04:02.044Z,980.02
2022-10-10T14:09:33.862Z,980.19
2022-10-10T14:15:05.549Z,980.11
2022-10-10T14:20:37.156Z,980.58
2022-10-10T14:26:08.958Z,980.4
2022-10-10T14:31:40.730Z,980.07
2022-10-10T14:37:12.430Z,980.45
2022-10-10T14:42:44.144Z,980.27
2022-10-10T14:48:15.912Z,979.99
2022-10-10T14:54:14.715Z,979.76
2022-10-10T14:59:50.614Z,979.75
2022-10-10T15:04:55.498Z,979.62
2022-10-10T15:10:36.027Z,979.52
2022-10-10T15:15:58.921Z,979.6
2022-10-10T15:21:30.623Z,979.58
2022-10-10T15:27:02.388Z,979.61
2022-10-10T15:32:34.236Z,979.58
2022-10-10T15:38:05.972Z,979.63
2022-10-10T15:43:37.964Z,979.57
2022-10-10T15:49:09.424Z,979.42
2022-10-10T15:54:41.004Z,979.09
2022-10-10T16:00:12.811Z,978.96
2022-10-10T16:05:50.940Z,978.83
2022-10-10T16:11:22.742Z,978.69
2022-10-10T16:16:54.329Z,978.61
2022-10-10T16:22:26.162Z,978.53
2022-10-10T16:27:57.811Z,978.45
2022-10-10T16:33:29.489Z,978.44
2022-10-10T16:39:01.175Z,978.45
2022-10-10T16:44:33.025Z,978.34
2022-10-10T16:50:04.767Z,978.29
2022-10-10T16:55:36.462Z,978.14
2022-10-10T17:01:09.759Z,978.04
2022-10-10T17:06:44.339Z,977.81
2022-10-10T17:12:16.135Z,977.67
2022-10-10T17:17:47.806Z,977.76
2022-10-10T17:23:19.514Z,977.85
2022-10-10T17:28:51.419Z,977.93
2022-10-10T17:34:23.013Z,977.95
2022-10-10T17:39:54.904Z,978.08
2022-10-10T17:45:26.490Z,978.11
2022-10-10T17:50:58.112Z,978.19
2022-10-10T17:56:29.981Z,978.28
2022-10-10T18:02:01.622Z,978.23
2022-10-10T18:07:37.749Z,978.26
2022-10-10T18:13:09.554Z,978.24
2022-10-10T18:18:41.233Z,977.13
2022-10-10T18:24:12.926Z,977.62
2022-10-10T18:29:44.724Z,977.63
2022-10-10T18:35:16.372Z,978.51
2022-10-10T18:40:48.102Z,978.92
2022-10-10T18:46:19.874Z,978.88
2022-10-10T18:51:51.585Z,978.92
2022-10-10T18:57:23.345Z,978.78
2022-10-10T19:02:54.990Z,978.58
2022-10-10T19:08:31.034Z,978.51
2022-10-10T19:14:02.809Z,978.76
2022-10-10T19:19:34.549Z,979.14
2022-10-10T19:25:06.349Z,978.79
2022-10-10T19:30:38.012Z,979.16
2022-10-10T19:36:09.810Z,978.96
2022-10-10T19:41:41.499Z,979.44
2022-10-10T19:47:13.261Z,979.43
2022-10-10T19:52:44.985Z,979.18
2022-10-10T19:58:16.729Z,980.16
2022-10-10T20:03:48.386Z,980.7
2022-10-10T20:09:26.494Z,980.79
2022-10-10T20:14:58.203Z,981.29
2022-10-10T20:20:29.927Z,981.77
2022-10-10T20:26:03.418Z,981.83
2022-10-10T20:31:33.437Z,982.02
2022-10-10T20:37:05.166Z,981.91
2022-10-10T20:42:36.857Z,981.6
2022-10-10T20:48:08.628Z,982.04
2022-10-10T20:53:40.380Z,982.13
2022-10-10T20:59:12.066Z,982.56
2022-10-10T21:04:43.724Z,982.47
2022-10-10T21:10:19.920Z,982.8
2022-10-10T21:15:51.597Z,982.98
2022-10-10T21:21:23.345Z,982.93
2022-10-10T21:26:55.021Z,982.98
2022-10-10T21:32:26.858Z,983.14
2022-10-10T21:37:58.492Z,983.29
2022-10-10T21:43:30.179Z,983.27
2022-10-10T21:49:01.973Z,983.35
2022-10-10T21:54:33.756Z,983.34
2022-10-10T22:00:06.014Z,983.65
2022-10-10T22:05:37.248Z,983.68
2022-10-10T22:11:13.391Z,983.69
2022-10-10T22:16:45.140Z,984.02
2022-10-10T22:22:17.381Z,983.88
2022-10-10T22:27:48.395Z,983.88
2022-10-10T22:33:20.385Z,984.04
2022-10-10T22:38:52.932Z,984.41
2022-10-10T22:44:23.598Z,984.68
2022-10-10T22:49:55.298Z,984.81
2022-10-10T22:55:27.078Z,984.51
2022-10-10T23:00:58.984Z,984.89
2022-10-10T23:06:30.475Z,984.9
2022-10-10T23:12:06.714Z,984.88
2022-10-10T23:17:38.427Z,984.86
2022-10-10T23:23:10.170Z,984.85
2022-10-10T23:28:42.186Z,984.83
2022-10-10T23:34:13.562Z,984.86
2022-10-10T23:39:45.422Z,984.84
2022-10-10T23:45:17.031Z,984.81
2022-10-10T23:50:48.834Z,984.81
2022-10-10T23:56:20.542Z,984.7
